| time (UTC) | temp F | wind direction | speed MPH | gust MPH | rain 1hr in | rain 24hr in | rain mn in | humidity % | barometer mb |
| 20260906120004 | 70 | 319 | 0.0 | 0.0 | 0.00 | 0.07 | 0.00 | 98 | 1014.7 |
| 20260906115200 | 70 | 319 | 0.0 | 0.0 | 0.00 | 0.07 | 0.00 | 98 | 1014.8 |
| 20260906114400 | 69 | 319 | 0.0 | 0.0 | 0.00 | 0.07 | 0.00 | 98 | 1014.8 |
| 20260906113600 | 69 | 319 | 0.0 | 0.0 | 0.00 | 0.07 | 0.00 | 98 | 1014.8 |
| 20260906112800 | 69 | 319 | 0.0 | 0.0 | 0.00 | 0.07 | 0.00 | 98 | 1014.9 |
| 20260906112001 | 69 | 319 | 0.0 | 0.0 | 0.00 | 0.07 | 0.00 | 98 | 1014.7 |
| 20260906111200 | 69 | 319 | 0.0 | 0.0 | 0.00 | 0.07 | 0.00 | 98 | 1014.7 |
| 20260906110359 | 69 | 319 | 0.0 | 0.0 | 0.00 | 0.07 | 0.00 | 98 | 1014.6 |
| 20260906105600 | 69 | 319 | 0.0 | 0.0 | 0.00 | 0.07 | 0.00 | 98 | 1014.7 |
| 20260906104001 | 69 | 319 | 0.0 | 0.0 | 0.00 | 0.07 | 0.00 | 98 | 1014.6 |
| 20260906103201 | 69 | 319 | 0.0 | 0.0 | 0.00 | 0.07 | 0.00 | 98 | 1014.6 |
| 20260906102401 | 69 | 319 | 0.0 | 0.0 | 0.00 | 0.07 | 0.00 | 98 | 1014.6 |
| 20260906101600 | 69 | 319 | 0.0 | 0.0 | 0.00 | 0.07 | 0.00 | 98 | 1014.6 |
| 20260906100800 | 69 | 319 | 0.0 | 0.0 | 0.00 | 0.07 | 0.00 | 98 | 1014.4 |
| 20260906100004 | 69 | 319 | 0.0 | 0.0 | 0.00 | 0.07 | 0.00 | 98 | 1014.4 |
| 20260906095201 | 69 | 319 | 0.0 | 0.0 | 0.00 | 0.07 | 0.00 | 97 | 1014.4 |
| 20260906092759 | 70 | 319 | 0.0 | 0.0 | 0.00 | 0.07 | 0.00 | 97 | 1014.2 |
| 20260906092001 | 70 | 319 | 0.0 | 0.0 | 0.00 | 0.07 | 0.00 | 97 | 1014.2 |
| 20260906091200 | 70 | 319 | 0.0 | 0.0 | 0.00 | 0.07 | 0.00 | 97 | 1014.2 |
| 20260906090400 | 70 | 319 | 0.0 | 0.0 | 0.00 | 0.07 | 0.00 | 97 | 1014.3 |
| 20260906085559 | 69 | 319 | 0.0 | 0.0 | 0.00 | 0.07 | 0.00 | 97 | 1014.4 |
| 20260906084759 | 70 | 319 | 0.0 | 0.0 | 0.00 | 0.07 | 0.00 | 97 | 1014.4 |
| 20260906083959 | 70 | 319 | 0.0 | 0.0 | 0.00 | 0.07 | 0.00 | 97 | 1014.4 |
| 20260906083159 | 70 | 319 | 0.0 | 0.0 | 0.00 | 0.07 | 0.00 | 97 | 1014.2 |
| 20260906082359 | 70 | 319 | 0.0 | 0.0 | 0.00 | 0.07 | 0.00 | 97 | 1014.2 |
| 20260906080759 | 70 | 319 | 0.0 | 0.0 | 0.00 | 0.07 | 0.00 | 97 | 1014.0 |
| 20260906080000 | 70 | 319 | 0.0 | 0.0 | 0.00 | 0.07 | 0.00 | 97 | 1014.0 |
| 20260906075159 | 70 | 319 | 0.0 | 0.0 | 0.00 | 0.07 | 0.00 | 97 | 1014.1 |
| 20260906073559 | 70 | 320 | 0.0 | 0.0 | 0.00 | 0.07 | 0.00 | 97 | 1014.3 |
| 20260906072000 | 71 | 320 | 0.0 | 0.0 | 0.00 | 0.07 | 0.00 | 97 | 1014.3 |
| 20260906071159 | 71 | 320 | 0.0 | 0.0 | 0.00 | 0.07 | 0.00 | 97 | 1014.3 |
| 20260906070359 | 71 | 320 | 0.0 | 0.0 | 0.00 | 0.07 | 0.00 | 97 | 1014.3 |
| 20260906065559 | 71 | 320 | 0.0 | 0.0 | 0.00 | 0.07 | 0.00 | 97 | 1014.2 |
| 20260906064758 | 71 | 321 | 0.0 | 0.0 | 0.00 | 0.07 | 0.00 | 97 | 1014.2 |
| 20260906064001 | 71 | 320 | 0.0 | 0.0 | 0.00 | 0.07 | 0.00 | 97 | 1014.3 |
| 20260906063158 | 71 | 321 | 0.0 | 0.0 | 0.00 | 0.07 | 0.00 | 96 | 1014.5 |
| 20260906062359 | 71 | 320 | 0.0 | 0.0 | 0.00 | 0.07 | 0.00 | 97 | 1014.4 |
| 20260906061559 | 71 | 320 | 0.0 | 0.0 | 0.00 | 0.07 | 0.00 | 96 | 1014.4 |
| 20260906060004 | 71 | 320 | 0.0 | 0.0 | 0.00 | 0.07 | 0.00 | 96 | 1014.5 |
| 20260906055200 | 71 | 320 | 0.0 | 0.0 | 0.00 | 0.07 | 0.00 | 96 | 1014.3 |
| 20260906052800 | 71 | 320 | 0.0 | 0.0 | 0.00 | 0.07 | 0.00 | 96 | 1014.7 |
| 20260906052001 | 72 | 320 | 0.0 | 0.0 | 0.00 | 0.07 | 0.00 | 96 | 1014.7 |
| 20260906051200 | 72 | 320 | 0.0 | 0.0 | 0.00 | 0.07 | 0.00 | 96 | 1014.7 |
| 20260906050400 | 72 | 320 | 0.0 | 0.0 | 0.00 | 0.07 | 0.00 | 96 | 1014.6 |
| 20260906045601 | 72 | 320 | 0.0 | 0.0 | 0.00 | 0.07 | 0.00 | 96 | 1014.7 |
| 20260906044000 | 72 | 320 | 0.0 | 0.0 | 0.00 | 0.07 | 0.00 | 96 | 1014.6 |
| 20260906043201 | 72 | 320 | 0.0 | 0.0 | 0.00 | 0.07 | 0.00 | 96 | 1014.7 |
| 20260906042401 | 72 | 320 | 0.0 | 0.0 | 0.00 | 0.07 | 0.00 | 95 | 1014.6 |
| 20260906041601 | 72 | 320 | 0.0 | 0.0 | 0.00 | 0.07 | 0.00 | 95 | 1014.7 |
| 20260906040007 | 72 | 320 | 0.0 | 0.0 | 0.00 | 0.07 | 0.00 | 95 | 1014.5 |
| 20260906035202 | 72 | 320 | 0.0 | 0.0 | 0.00 | 0.07 | 0.07 | 95 | 1014.6 |
| 20260906034402 | 72 | 320 | 0.0 | 0.0 | 0.00 | 0.07 | 0.07 | 94 | 1014.5 |
| 20260906032802 | 72 | 321 | 0.0 | 0.0 | 0.07 | 0.07 | 0.07 | 94 | 1014.7 |
| 20260906031202 | 72 | 321 | 0.0 | 0.0 | 0.07 | 0.07 | 0.07 | 93 | 1015.0 |
| 20260906024802 | 73 | 321 | 0.0 | 1.0 | 0.07 | 0.07 | 0.07 | 89 | 1015.7 |
| 20260906021602 | 77 | 244 | 0.0 | 3.0 | 0.00 | 0.00 | 0.00 | 75 | 1015.8 |
| 20260906020801 | 77 | 252 | 0.0 | 3.0 | 0.00 | 0.00 | 0.00 | 74 | 1015.8 |
| 20260906020005 | 77 | 37 | 0.0 | 5.0 | 0.00 | 0.00 | 0.00 | 75 | 1015.7 |
| 20260906014401 | 77 | 113 | 0.0 | 1.0 | 0.00 | 0.00 | 0.00 | 77 | 1015.6 |
| 20260906013600 | 77 | 113 | 0.0 | 1.0 | 0.00 | 0.00 | 0.00 | 77 | 1015.3 |
| 20260906012800 | 77 | 114 | 0.0 | 1.0 | 0.00 | 0.00 | 0.00 | 77 | 1015.0 |
| 20260906012001 | 77 | 114 | 0.0 | 1.0 | 0.00 | 0.00 | 0.00 | 76 | 1014.9 |
| 20260906011200 | 77 | 114 | 0.0 | 2.0 | 0.00 | 0.00 | 0.00 | 76 | 1015.2 |
| 20260906010401 | 78 | 95 | 0.0 | 1.0 | 0.00 | 0.00 | 0.00 | 76 | 1015.1 |
| 20260906005601 | 78 | 54 | 0.0 | 2.0 | 0.00 | 0.00 | 0.00 | 75 | 1014.8 |
| 20260906003200 | 79 | 232 | 1.0 | 6.0 | 0.00 | 0.00 | 0.00 | 72 | 1013.8 |
| 20260906002400 | 80 | 110 | 1.0 | 4.0 | 0.00 | 0.00 | 0.00 | 71 | 1014.2 |
| 20260906001601 | 80 | 246 | 1.0 | 4.0 | 0.00 | 0.00 | 0.00 | 71 | 1013.8 |
| 20260906000800 | 81 | 87 | 0.0 | 6.0 | 0.00 | 0.00 | 0.00 | 71 | 1014.5 |
| 20260905235201 | 84 | 112 | 4.0 | 12.0 | 0.00 | 0.00 | 0.00 | 65 | 1014.5 |
| 20260905234401 | 86 | 76 | 1.0 | 3.0 | 0.00 | 0.00 | 0.00 | 67 | 1013.7 |
| 20260905233602 | 86 | 184 | 1.0 | 3.0 | 0.00 | 0.00 | 0.00 | 66 | 1013.2 |
| 20260905232802 | 87 | 264 | 1.0 | 5.0 | 0.00 | 0.00 | 0.00 | 65 | 1013.1 |
| 20260905232002 | 87 | 225 | 1.0 | 4.0 | 0.00 | 0.00 | 0.00 | 65 | 1013.3 |
| 20260905231201 | 88 | 259 | 1.0 | 4.0 | 0.00 | 0.00 | 0.00 | 63 | 1013.4 |
| 20260905230402 | 88 | 191 | 1.0 | 4.0 | 0.00 | 0.00 | 0.00 | 63 | 1013.4 |
| 20260905225601 | 89 | 226 | 2.0 | 4.0 | 0.00 | 0.00 | 0.00 | 62 | 1013.4 |
| 20260905224800 | 89 | 257 | 1.0 | 5.0 | 0.00 | 0.00 | 0.00 | 62 | 1013.4 |
| 20260905224000 | 90 | 197 | 0.0 | 3.0 | 0.00 | 0.00 | 0.00 | 61 | 1013.4 |
| 20260905223200 | 91 | 296 | 1.0 | 5.0 | 0.00 | 0.00 | 0.00 | 60 | 1013.4 |
| 20260905222401 | 91 | 218 | 1.0 | 7.0 | 0.00 | 0.00 | 0.00 | 59 | 1013.3 |
| 20260905221600 | 92 | 261 | 2.0 | 5.0 | 0.00 | 0.00 | 0.00 | 58 | 1013.2 |
| 20260905220801 | 92 | 163 | 2.0 | 8.0 | 0.00 | 0.00 | 0.00 | 58 | 1013.2 |
| 20260905220001 | 93 | 164 | 1.0 | 7.0 | 0.00 | 0.00 | 0.00 | 58 | 1013.1 |
| 20260905215201 | 93 | 274 | 2.0 | 5.0 | 0.00 | 0.00 | 0.00 | 57 | 1012.9 |
| 20260905214400 | 93 | 230 | 2.0 | 7.0 | 0.00 | 0.00 | 0.00 | 56 | 1012.9 |
| 20260905213600 | 94 | 219 | 3.0 | 7.0 | 0.00 | 0.00 | 0.00 | 57 | 1012.9 |
| 20260905212800 | 94 | 294 | 2.0 | 7.0 | 0.00 | 0.00 | 0.00 | 58 | 1013.1 |
| 20260905211201 | 93 | 243 | 2.0 | 6.0 | 0.00 | 0.00 | 0.00 | 57 | 1013.0 |
| 20260905210401 | 95 | 244 | 3.0 | 8.0 | 0.00 | 0.00 | 0.00 | 54 | 1013.0 |
| 20260905205600 | 97 | 250 | 2.0 | 6.0 | 0.00 | 0.00 | 0.00 | 52 | 1012.9 |
| 20260905204800 | 99 | 236 | 2.0 | 6.0 | 0.00 | 0.00 | 0.00 | 43 | 1013.0 |
| 20260905203200 | 99 | 256 | 1.0 | 2.0 | 0.00 | 0.00 | 0.00 | 40 | 1013.0 |
| 20260905202400 | 99 | 113 | 0.0 | 3.0 | 0.00 | 0.00 | 0.00 | 41 | 1013.2 |
| 20260905201600 | 99 | 264 | 1.0 | 3.0 | 0.00 | 0.00 | 0.00 | 43 | 1013.3 |
| 20260905200800 | 98 | 283 | 1.0 | 1.0 | 0.00 | 0.00 | 0.00 | 43 | 1013.5 |
| 20260905200004 | 97 | 272 | 0.0 | 1.0 | 0.00 | 0.00 | 0.00 | 46 | 1013.7 |
| 20260905195159 | 97 | 243 | 0.0 | 1.0 | 0.00 | 0.00 | 0.00 | 43 | 1013.9 |
| 20260905193600 | 99 | 25 | 1.0 | 5.0 | 0.00 | 0.00 | 0.00 | 43 | 1014.0 |
| 20260905192802 | 99 | 33 | 1.0 | 5.0 | 0.00 | 0.00 | 0.00 | 43 | 1014.1 |
| 20260905191201 | 99 | 86 | 0.0 | 2.0 | 0.00 | 0.00 | 0.00 | 41 | 1014.2 |
| 20260905190401 | 98 | 23 | 1.0 | 4.0 | 0.00 | 0.00 | 0.00 | 44 | 1014.3 |
| 20260905185601 | 97 | 310 | 1.0 | 3.0 | 0.00 | 0.00 | 0.00 | 45 | 1014.4 |
| 20260905184802 | 97 | 99 | 1.0 | 4.0 | 0.00 | 0.00 | 0.00 | 43 | 1014.4 |
| 20260905184001 | 97 | 240 | 1.0 | 2.0 | 0.00 | 0.00 | 0.00 | 43 | 1014.5 |
| 20260905182401 | 96 | 121 | 0.0 | 1.0 | 0.00 | 0.00 | 0.00 | 48 | 1014.9 |
| 20260905181601 | 96 | 241 | 1.0 | 2.0 | 0.00 | 0.00 | 0.00 | 47 | 1015.0 |
| 20260905180800 | 96 | 13 | 0.0 | 2.0 | 0.00 | 0.00 | 0.00 | 46 | 1014.9 |
| 20260905180002 | 95 | 92 | 1.0 | 4.0 | 0.00 | 0.00 | 0.00 | 45 | 1015.0 |
| 20260905175159 | 95 | 30 | 2.0 | 4.0 | 0.00 | 0.00 | 0.00 | 45 | 1015.2 |
| 20260905174359 | 94 | 242 | 1.0 | 4.0 | 0.00 | 0.00 | 0.00 | 48 | 1015.4 |
| 20260905171959 | 94 | 314 | 1.0 | 2.0 | 0.00 | 0.00 | 0.00 | 54 | 1015.6 |
| 20260905171159 | 93 | 56 | 0.0 | 2.0 | 0.00 | 0.00 | 0.00 | 51 | 1015.7 |
| 20260905170359 | 94 | 266 | 1.0 | 2.0 | 0.00 | 0.00 | 0.00 | 52 | 1015.8 |
| 20260905165600 | 92 | 273 | 1.0 | 2.0 | 0.00 | 0.00 | 0.00 | 54 | 1015.9 |
| 20260905164001 | 92 | 235 | 0.0 | 2.0 | 0.00 | 0.00 | 0.00 | 54 | 1016.2 |
| 20260905163200 | 92 | 120 | 1.0 | 3.0 | 0.00 | 0.00 | 0.00 | 53 | 1016.4 |
| 20260905162401 | 92 | 49 | 1.0 | 3.0 | 0.00 | 0.00 | 0.00 | 55 | 1016.4 |
| 20260905161601 | 92 | 108 | 1.0 | 3.0 | 0.00 | 0.00 | 0.00 | 53 | 1016.4 |
| 20260905160004 | 91 | 347 | 1.0 | 4.0 | 0.00 | 0.00 | 0.00 | 53 | 1016.3 |
| 20260905154401 | 91 | 123 | 1.0 | 3.0 | 0.00 | 0.00 | 0.00 | 56 | 1016.5 |
| 20260905153602 | 90 | 281 | 1.0 | 3.0 | 0.00 | 0.00 | 0.00 | 57 | 1016.5 |
| 20260905152801 | 90 | 113 | 0.0 | 1.0 | 0.00 | 0.00 | 0.00 | 57 | 1016.5 |
| 20260905152000 | 89 | 89 | 1.0 | 4.0 | 0.00 | 0.00 | 0.00 | 59 | 1016.5 |
| 20260905151159 | 89 | 104 | 1.0 | 4.0 | 0.00 | 0.00 | 0.00 | 59 | 1016.6 |
| 20260905150400 | 88 | 176 | 0.0 | 2.0 | 0.00 | 0.00 | 0.00 | 60 | 1016.7 |
| 20260905145600 | 88 | 255 | 0.0 | 3.0 | 0.00 | 0.00 | 0.00 | 62 | 1016.7 |
| 20260905144801 | 88 | 110 | 1.0 | 3.0 | 0.00 | 0.00 | 0.00 | 63 | 1016.8 |
| 20260905144001 | 88 | 122 | 0.0 | 2.0 | 0.00 | 0.00 | 0.00 | 63 | 1016.7 |
| 20260905143200 | 87 | 256 | 1.0 | 2.0 | 0.00 | 0.00 | 0.00 | 64 | 1016.7 |
| 20260905142402 | 87 | 240 | 1.0 | 2.0 | 0.00 | 0.00 | 0.00 | 65 | 1016.8 |
| 20260905140801 | 87 | 229 | 0.0 | 1.0 | 0.00 | 0.00 | 0.00 | 65 | 1016.9 |
| 20260905140005 | 85 | 301 | 0.0 | 2.0 | 0.00 | 0.00 | 0.00 | 69 | 1016.9 |
| 20260905133601 | 83 | 75 | 0.0 | 2.0 | 0.00 | 0.00 | 0.00 | 72 | 1016.9 |
| 20260905132801 | 83 | 270 | 0.0 | 2.0 | 0.00 | 0.00 | 0.00 | 74 | 1017.1 |
| 20260905131200 | 82 | 246 | 0.0 | 1.0 | 0.00 | 0.00 | 0.00 | 76 | 1017.0 |
| 20260905130401 | 81 | 10 | 0.0 | 1.0 | 0.00 | 0.00 | 0.00 | 78 | 1017.1 |
| 20260905125559 | 80 | 295 | 0.0 | 1.0 | 0.00 | 0.00 | 0.00 | 80 | 1017.1 |
| 20260905124759 | 79 | 224 | 0.0 | 1.0 | 0.00 | 0.00 | 0.00 | 83 | 1017.1 |
| 20260905124000 | 80 | 314 | 0.0 | 1.0 | 0.00 | 0.00 | 0.00 | 82 | 1017.1 |
| 20260905123200 | 78 | 300 | 0.0 | 0.0 | 0.00 | 0.00 | 0.00 | 88 | 1017.1 |
| 20260905122359 | 76 | 300 | 0.0 | 0.0 | 0.00 | 0.00 | 0.00 | 93 | 1017.1 |
| 20260905121600 | 74 | 300 | 0.0 | 0.0 | 0.00 | 0.00 | 0.00 | 97 | 1016.9 |
| 20260905120801 | 73 | 300 | 0.0 | 0.0 | 0.00 | 0.00 | 0.00 | 98 | 1016.9 |